Terminal Aerodrome Forecast
Issued by NWS

Home | Current Version | Previous Version | Text Only | Print | Product List | Glossary On
Versions: 1 2 3 4 5 6 7 8 9 10 11 12 13 14 15 16 17
122
FTUS42 KILM 232320
TAFCRE
TAF
KCRE 232320Z 2400/2424 17013G23KT P6SM VCSH BKN050
      TEMPO 2400/2404 4SM SHRA BKN025
     FM240400 19013KT 4SM -SHRA BKN020
      TEMPO 2409/2412 2SM SHRA BR
     FM241300 22010KT P6SM VCSH BKN045
     FM241500 23010KT P6SM BKN080
     FM242100 24009KT P6SM SCT050=

USA.gov is the U.S. government's official web portal to all federal, state and local government web resources and services.